Weather at Fresno Yosemite International Airport

Public forecast

Using degrees Fahrenheit for public forecast. Weather courtesy of forecast.io.

Current aviation weather report (METAR) for Fresno Yosemite International Airport

2024/05/28 22:53 (retrieved 41 minutes ago)

KFAT 282253Z 31010KT 10SM FEW050 FEW080 SCT200 32/06 A2995 RMK AO2 SLP137 T03220056

Aviation forecast (TAF) for Fresno Yosemite International Airport

2024/05/28 18:22 (retrieved 5 hours ago)

TAF KFAT 281720Z 2818/2918 31010KT P6SM SKC